Time;durP1;ratioP1;P1;durP2;ratioP2;P2;SDS_P1;SDS_P2;PMS_P1;PMS_P2;Temp;Humidity;BMP_temperature;BMP_pressure;BME280_temperature;BME280_humidity;BME280_pressure;Samples;Min_cycle;Max_cycle;Signal;HPM_P1;HPM_P2
2022/04/28 00:00:24;;;;;;;4.05;2.03;;;;;;;16.81;55.17;94610.50;4160245;28;20125;-54
2022/04/28 00:02:26;;;;;;;4.55;2.60;;;;;;;16.70;55.22;94610.03;4159980;28;20441;-51
2022/04/28 00:04:27;;;;;;;4.25;1.77;;;;;;;16.68;55.40;94613.91;4160109;28;20064;-54
2022/04/28 00:06:29;;;;;;;4.43;2.33;;;;;;;16.67;55.43;94612.25;4159884;28;20348;-54
2022/04/28 00:08:32;;;;;;;4.65;2.50;;;;;;;16.67;55.37;94615.72;4158610;28;20053;-54
2022/04/28 00:10:35;;;;;;;5.88;2.72;;;;;;;16.66;55.16;94613.28;4159949;28;20053;-53
2022/04/28 00:12:37;;;;;;;9.00;2.75;;;;;;;16.62;55.53;94626.06;4159751;28;20449;-55
2022/04/28 00:14:43;;;;;;;6.43;2.60;;;;;;;16.67;55.45;94620.19;4158758;28;20124;-52
2022/04/28 00:16:45;;;;;;;5.32;2.20;;;;;;;16.68;55.24;94617.34;4157758;28;20053;-55
2022/04/28 00:18:47;;;;;;;5.97;2.55;;;;;;;16.72;55.17;94621.22;4159639;28;20053;-54
2022/04/28 00:20:49;;;;;;;9.90;3.70;;;;;;;16.76;55.21;94622.47;4159509;28;20049;-51
2022/04/28 00:22:50;;;;;;;5.00;2.95;;;;;;;16.73;55.35;94620.19;4158681;28;20053;-52
2022/04/28 00:24:52;;;;;;;5.45;2.97;;;;;;;16.74;55.30;94616.56;4159488;28;20060;-53
2022/04/28 00:26:54;;;;;;;5.32;3.00;;;;;;;16.75;55.43;94612.88;4159377;28;20497;-52
2022/04/28 00:28:56;;;;;;;6.85;3.05;;;;;;;16.79;55.21;94622.06;4159769;28;20426;-56
2022/04/28 00:30:57;;;;;;;6.97;2.95;;;;;;;16.75;55.22;94628.75;4159738;28;20420;-54
2022/04/28 00:32:59;;;;;;;7.47;3.28;;;;;;;16.67;55.81;94626.31;4159320;28;20517;-52
2022/04/28 00:35:01;;;;;;;5.30;2.97;;;;;;;16.49;56.36;94633.97;4159271;28;20401;-54
2022/04/28 00:37:03;;;;;;;10.93;3.35;;;;;;;15.95;57.73;94628.38;4159447;28;20418;-53
2022/04/28 00:39:04;;;;;;;6.20;3.63;;;;;;;15.12;60.34;94645.75;4157309;28;20095;-54
2022/04/28 00:41:06;;;;;;;7.13;3.72;;;;;;;14.95;61.20;94639.94;4158567;28;20125;-53
2022/04/28 00:43:20;;;;;;;9.63;3.70;;;;;;;14.76;61.75;94643.19;4159021;28;20118;-53
2022/04/28 00:45:22;;;;;;;7.78;3.92;;;;;;;14.68;62.21;94646.75;4159517;28;20053;-51
2022/04/28 00:50:38;;;;;;;6.70;3.22;;;;;;;14.82;62.07;94647.69;4159182;28;20485;-57
2022/04/28 00:52:07;;;;;;;7.20;3.40;;;;;;;15.25;60.62;94648.56;4159319;28;20483;-54
2022/04/28 00:54:09;;;;;;;11.10;3.58;;;;;;;15.41;60.11;94647.47;4157668;28;20057;-53
2022/04/28 00:56:10;;;;;;;9.70;3.70;;;;;;;15.53;59.92;94650.41;4158639;28;20578;-53
2022/04/28 00:58:12;;;;;;;9.63;3.83;;;;;;;15.62;59.59;94643.19;4157591;28;20111;-54
2022/04/28 01:00:15;;;;;;;5.55;3.47;;;;;;;15.59;59.66;94648.81;4157618;28;20301;-55
2022/04/28 01:02:18;;;;;;;7.90;4.13;;;;;;;15.57;59.83;94654.28;4158990;28;20049;-53
2022/04/28 01:04:20;;;;;;;9.30;3.95;;;;;;;15.41;60.24;94655.38;4158525;28;20305;-54
2022/04/28 01:06:22;;;;;;;8.32;3.72;;;;;;;15.14;61.24;94665.72;4158833;28;20099;-52
2022/04/28 01:08:23;;;;;;;9.57;3.60;;;;;;;15.03;61.54;94666.19;4157642;28;20242;-54
2022/04/28 01:10:25;;;;;;;8.43;4.15;;;;;;;14.97;61.89;94660.84;4158880;28;20061;-54
2022/04/28 01:12:27;;;;;;;8.57;3.88;;;;;;;14.94;62.42;94656.75;4158903;28;20145;-50
2022/04/28 01:14:28;;;;;;;7.68;4.30;;;;;;;15.01;62.05;94660.28;4157252;28;20053;-54
2022/04/28 01:16:30;;;;;;;7.88;4.30;;;;;;;15.06;61.99;94660.53;4158858;28;20076;-54
2022/04/28 01:18:32;;;;;;;7.70;4.30;;;;;;;15.04;62.26;94659.09;4158280;28;20457;-52
2022/04/28 01:20:33;;;;;;;8.75;4.18;;;;;;;15.10;62.02;94659.16;4157468;28;20568;-54
2022/04/28 01:22:35;;;;;;;11.05;4.32;;;;;;;15.10;61.99;94667.09;4154921;28;20122;-51
2022/04/28 01:24:37;;;;;;;8.68;4.00;;;;;;;15.09;61.97;94659.34;4157213;28;20061;-54
2022/04/28 01:26:41;;;;;;;7.15;3.85;;;;;;;15.08;62.00;94670.91;4158861;28;20181;-52
2022/04/28 01:28:42;;;;;;;7.97;4.13;;;;;;;15.00;61.96;94674.47;4158571;28;20564;-53
2022/04/28 01:30:44;;;;;;;8.18;3.67;;;;;;;15.04;62.33;94669.66;4158579;28;20944;-54
2022/04/28 01:32:46;;;;;;;7.25;4.10;;;;;;;15.02;62.49;94669.03;4151157;28;20135;-54
2022/04/28 01:34:48;;;;;;;6.72;4.32;;;;;;;14.97;62.56;94666.13;4157392;28;20061;-52
2022/04/28 01:36:50;;;;;;;12.07;4.30;;;;;;;14.99;62.67;94674.66;4158792;28;20331;-54
2022/04/28 01:38:51;;;;;;;11.68;4.80;;;;;;;15.05;62.44;94674.72;4157424;28;20529;-51
2022/04/28 01:40:53;;;;;;;8.10;3.95;;;;;;;15.10;62.08;94679.44;4156587;28;20053;-52
2022/04/28 01:42:55;;;;;;;6.70;4.10;;;;;;;15.11;62.26;94673.16;4157211;28;20060;-54
2022/04/28 01:44:56;;;;;;;5.60;3.85;;;;;;;15.11;61.88;94668.69;4158343;28;20138;-51
2022/04/28 01:46:59;;;;;;;7.18;3.80;;;;;;;15.02;62.13;94669.03;4142227;28;20479;-53
2022/04/28 01:49:00;;;;;;;8.35;4.28;;;;;;;15.04;62.42;94667.81;4157323;28;20122;-50
2022/04/28 01:55:42;;;;;;;7.30;4.10;;;;;;;15.11;62.22;94675.81;4157004;28;20049;-51
2022/04/28 01:57:46;;;;;;;5.70;3.65;;;;;;;15.20;61.91;94679.13;4158342;28;20148;-54
2022/04/28 01:59:47;;;;;;;10.90;4.18;;;;;;;15.20;61.98;94687.88;4158718;28;20156;-52
2022/04/28 02:01:49;;;;;;;12.82;4.50;;;;;;;15.23;62.08;94684.03;4161764;28;20472;-51
2022/04/28 02:03:51;;;;;;;5.70;4.05;;;;;;;15.22;62.29;94688.50;4161279;28;20705;-52
2022/04/28 02:05:53;;;;;;;5.53;3.78;;;;;;;15.21;62.00;94683.41;4161869;28;20402;-56
2022/04/28 02:07:54;;;;;;;10.27;4.20;;;;;;;15.21;62.13;94691.31;4160371;28;20084;-52
2022/04/28 02:09:57;;;;;;;6.57;3.75;;;;;;;15.21;62.21;94691.31;4161681;28;20057;-49
2022/04/28 02:11:59;;;;;;;7.95;4.72;;;;;;;15.25;62.00;94696.06;4161662;28;20076;-50
2022/04/28 02:14:00;;;;;;;8.82;4.38;;;;;;;15.18;62.12;94689.88;4161380;28;20103;-53
2022/04/28 02:16:02;;;;;;;10.00;3.90;;;;;;;14.62;63.58;94689.66;4161674;28;20127;-51
2022/04/28 02:18:04;;;;;;;8.57;4.32;;;;;;;14.42;64.65;94689.38;4161206;28;20053;-53
2022/04/28 02:20:09;;;;;;;8.55;4.25;;;;;;;14.27;64.90;94687.56;4161682;28;20490;-52
2022/04/28 02:22:10;;;;;;;7.10;4.35;;;;;;;14.36;65.12;94688.28;4161120;28;20080;-50
2022/04/28 02:24:12;;;;;;;7.50;4.57;;;;;;;14.49;64.54;94696.34;4159810;28;20049;-53
2022/04/28 02:26:14;;;;;;;5.47;4.15;;;;;;;14.57;64.16;94700.75;4161337;28;20061;-53
2022/04/28 02:28:16;;;;;;;8.00;4.10;;;;;;;14.69;63.85;94701.94;4161506;28;20517;-52
2022/04/28 02:30:17;;;;;;;5.38;3.60;;;;;;;14.80;63.22;94708.56;4161166;28;20049;-54
2022/04/28 02:32:19;;;;;;;8.25;3.75;;;;;;;14.77;63.72;94706.25;4161626;28;20054;-54
2022/04/28 02:34:21;;;;;;;5.53;3.75;;;;;;;14.85;63.71;94697.44;4161302;28;20057;-54
2022/04/28 02:36:24;;;;;;;5.75;3.38;;;;;;;14.94;63.04;94698.97;4161297;28;20057;-49
2022/04/28 02:38:26;;;;;;;4.75;3.80;;;;;;;14.94;62.92;94699.78;4159956;28;20057;-51
2022/04/28 02:40:27;;;;;;;6.43;3.55;;;;;;;15.02;62.86;94703.31;4160794;28;20053;-54
2022/04/28 02:42:29;;;;;;;5.47;3.42;;;;;;;15.02;62.73;94701.50;4156697;28;20045;-52
2022/04/28 02:44:31;;;;;;;6.13;3.53;;;;;;;14.99;62.95;94704.47;4148777;28;20053;-51
2022/04/28 02:46:33;;;;;;;6.70;3.50;;;;;;;15.00;62.87;94697.41;4160702;28;20478;-54
2022/04/28 02:48:34;;;;;;;4.97;3.65;;;;;;;15.04;62.82;94711.88;4148726;28;20112;-51
2022/04/28 02:50:36;;;;;;;6.78;3.92;;;;;;;15.06;62.89;94702.75;4144847;28;20069;-53
2022/04/28 02:52:39;;;;;;;5.03;3.88;;;;;;;15.10;62.59;94708.47;4157286;28;20548;-52
2022/04/28 02:54:40;;;;;;;4.55;3.47;;;;;;;15.08;62.66;94700.75;4159717;28;20090;-52
2022/04/28 02:56:42;;;;;;;7.80;3.50;;;;;;;15.08;62.80;94702.59;4160885;28;20053;-52
2022/04/28 02:58:44;;;;;;;7.78;3.85;;;;;;;15.04;62.65;94702.13;4161074;28;20067;-51
2022/04/28 03:00:45;;;;;;;5.35;3.90;;;;;;;15.02;63.04;94704.13;4160582;28;20111;-54
2022/04/28 03:02:47;;;;;;;4.47;3.85;;;;;;;15.03;62.93;94704.94;4160786;28;20481;-52
2022/04/28 03:04:49;;;;;;;5.10;3.60;;;;;;;15.03;62.80;94704.94;4160129;28;20099;-51
2022/04/28 03:11:31;;;;;;;5.18;3.88;;;;;;;15.03;62.96;94711.03;4159722;28;20099;-51
2022/04/28 03:13:33;;;;;;;5.78;3.75;;;;;;;15.00;62.68;94716.69;4160500;28;20550;-53
2022/04/28 03:15:34;;;;;;;6.32;4.10;;;;;;;14.97;62.93;94721.50;4160970;28;20580;-55
2022/04/28 03:17:36;;;;;;;4.18;3.78;;;;;;;14.95;63.05;94724.34;4160536;28;20057;-54
2022/04/28 03:19:38;;;;;;;7.28;4.22;;;;;;;14.92;63.15;94724.69;4160458;28;20242;-51
2022/04/28 03:21:40;;;;;;;4.63;3.97;;;;;;;14.85;63.27;94729.09;4160396;28;20119;-52
2022/04/28 03:23:42;;;;;;;9.15;4.57;;;;;;;14.84;63.55;94736.19;4159076;28;20121;-53
2022/04/28 03:25:44;;;;;;;5.80;3.60;;;;;;;14.89;63.35;94730.38;4160625;28;20125;-51
2022/04/28 03:27:45;;;;;;;6.60;4.32;;;;;;;14.84;63.78;94738.00;4160579;28;20056;-53
2022/04/28 03:29:47;;;;;;;6.22;4.70;;;;;;;14.57;64.45;94740.31;4160482;28;20053;-55
2022/04/28 03:31:49;;;;;;;5.63;4.75;;;;;;;13.96;66.24;94742.19;4160576;28;20053;-53
2022/04/28 03:33:52;;;;;;;5.43;4.75;;;;;;;13.93;66.87;94743.38;4159806;28;20061;-55
2022/04/28 03:35:53;;;;;;;6.80;5.38;;;;;;;14.00;66.68;94751.38;4160512;28;20081;-54
2022/04/28 03:37:58;;;;;;;7.85;5.05;;;;;;;14.13;66.46;94760.34;4159008;28;20494;-50
2022/04/28 03:39:59;;;;;;;9.75;5.53;;;;;;;14.30;65.98;94755.72;4160340;28;20139;-54
2022/04/28 03:42:02;;;;;;;7.85;5.80;;;;;;;14.38;65.77;94764.53;4159154;28;20053;-53
2022/04/28 03:44:04;;;;;;;7.60;6.00;;;;;;;14.48;65.24;94773.00;4158662;28;20064;-52
2022/04/28 03:46:05;;;;;;;6.93;6.05;;;;;;;14.44;65.48;94766.44;4160475;28;20532;-52
2022/04/28 03:48:11;;;;;;;7.82;6.63;;;;;;;14.39;65.88;94776.69;4159564;28;20111;-51
2022/04/28 03:50:12;;;;;;;8.35;6.07;;;;;;;14.33;66.16;94770.34;4160173;28;20252;-52
2022/04/28 03:52:14;;;;;;;7.28;6.22;;;;;;;13.98;67.57;94774.44;4160038;28;20111;-53
2022/04/28 03:54:16;;;;;;;9.75;6.53;;;;;;;13.83;67.96;94775.25;4158704;28;20179;-53
2022/04/28 03:56:17;;;;;;;9.38;6.63;;;;;;;13.84;68.18;94771.59;4160160;28;20057;-52
2022/04/28 03:58:19;;;;;;;9.68;6.88;;;;;;;13.96;67.61;94773.81;4159793;28;20050;-52
2022/04/28 04:00:21;;;;;;;8.73;7.35;;;;;;;14.02;67.68;94773.91;4160021;28;20057;-49
2022/04/28 04:02:23;;;;;;;9.23;6.88;;;;;;;14.15;67.21;94768.03;4160365;28;20049;-49
2022/04/28 04:04:25;;;;;;;8.60;7.05;;;;;;;14.22;66.74;94776.88;4159639;28;20057;-52
2022/04/28 04:06:27;;;;;;;8.60;6.50;;;;;;;14.18;66.81;94778.22;4159824;28;20058;-55
2022/04/28 04:08:28;;;;;;;7.80;6.65;;;;;;;14.17;67.24;94779.22;4158800;28;20490;-53
2022/04/28 04:10:30;;;;;;;10.25;6.55;;;;;;;14.21;66.88;94782.31;4159839;28;20649;-53
2022/04/28 04:12:32;;;;;;;7.55;6.45;;;;;;;14.19;67.29;94779.84;4159630;28;20049;-53
2022/04/28 04:14:33;;;;;;;12.10;6.97;;;;;;;14.24;66.71;94781.94;4159509;28;20053;-51
2022/04/28 04:16:35;;;;;;;7.95;6.85;;;;;;;14.28;66.46;94778.81;4159708;28;20052;-53
2022/04/28 04:18:37;;;;;;;7.57;6.78;;;;;;;14.30;66.39;94776.81;4159388;28;20057;-56
2022/04/28 04:20:40;;;;;;;8.15;6.28;;;;;;;14.32;66.23;94784.50;4159683;28;20669;-54
2022/04/28 04:22:42;;;;;;;7.53;6.60;;;;;;;14.27;66.65;94782.41;4159397;28;20053;-51
2022/04/28 04:24:43;;;;;;;7.18;5.80;;;;;;;14.25;66.77;94792.31;4157060;28;20107;-53
2022/04/28 04:26:45;;;;;;;7.60;5.40;;;;;;;14.22;66.62;94790.06;4159382;28;20199;-51
2022/04/28 04:28:47;;;;;;;8.45;5.50;;;;;;;14.19;66.56;94790.38;4159711;28;20049;-54
2022/04/28 04:33:09;;;;;;;7.30;5.35;;;;;;;14.07;66.58;94802.38;4159351;28;20111;-53
2022/04/28 04:37:30;;;;;;;6.28;4.03;;;;;;;13.87;67.44;94799.41;4159645;28;20701;-53
2022/04/28 04:39:32;;;;;;;8.63;4.43;;;;;;;13.89;67.23;94806.13;4158118;28;20501;-52
2022/04/28 04:41:34;;;;;;;6.07;4.13;;;;;;;13.85;67.08;94801.38;4159506;28;20122;-52
2022/04/28 04:43:39;;;;;;;4.35;3.25;;;;;;;13.64;67.27;94802.06;4157823;28;20064;-53
2022/04/28 04:45:43;;;;;;;3.90;3.30;;;;;;;13.49;67.65;94804.63;4154712;28;20532;-52
2022/04/28 04:47:46;;;;;;;4.10;2.55;;;;;;;13.45;67.70;94806.75;4159109;28;20057;-53
2022/04/28 04:49:47;;;;;;;5.45;3.17;;;;;;;13.57;67.05;94809.81;4159376;28;20123;-54
2022/04/28 04:51:49;;;;;;;4.32;3.08;;;;;;;13.63;66.59;94810.94;4159137;28;20103;-53
2022/04/28 04:53:51;;;;;;;2.80;2.20;;;;;;;13.49;66.64;94810.69;4157626;28;20103;-54
2022/04/28 04:55:52;;;;;;;2.90;2.05;;;;;;;13.54;66.34;94819.88;4159150;28;20138;-53
2022/04/28 04:57:54;;;;;;;4.15;2.08;;;;;;;13.55;66.17;94824.13;4158947;28;20424;-54
2022/04/28 04:59:56;;;;;;;6.70;2.50;;;;;;;13.40;66.21;94832.78;4159014;28;20057;-53
2022/04/28 05:01:57;;;;;;;2.75;2.00;;;;;;;13.38;66.00;94823.41;4159156;28;20197;-51
2022/04/28 05:03:59;;;;;;;2.75;1.88;;;;;;;13.26;66.46;94821.16;4158735;28;20065;-52
2022/04/28 05:06:01;;;;;;;2.75;1.67;;;;;;;13.28;66.36;94829.72;4159138;28;20061;-53
2022/04/28 05:08:03;;;;;;;2.67;1.80;;;;;;;13.21;66.69;94828.75;4157631;28;20489;-52
2022/04/28 05:10:05;;;;;;;2.75;1.70;;;;;;;13.23;66.31;94832.03;4158823;28;20054;-52
2022/04/28 05:12:07;;;;;;;2.97;1.63;;;;;;;13.11;66.66;94839.47;4159186;28;20111;-54
2022/04/28 05:14:13;;;;;;;3.55;1.50;;;;;;;13.15;66.68;94836.50;4158248;28;20053;-53
2022/04/28 05:16:15;;;;;;;2.40;1.40;;;;;;;13.09;66.76;94838.00;4159260;28;20425;-52
2022/04/28 05:18:17;;;;;;;3.05;1.70;;;;;;;13.11;66.44;94849.97;4158548;28;20129;-54
2022/04/28 05:20:18;;;;;;;3.38;1.27;;;;;;;13.19;66.29;94851.78;4158882;28;20192;-56
2022/04/28 05:22:20;;;;;;;2.65;1.52;;;;;;;13.33;65.40;94855.50;4158953;28;20103;-56
2022/04/28 05:24:22;;;;;;;2.40;1.63;;;;;;;13.35;65.18;94853.53;4157109;28;20162;-52
2022/04/28 05:26:24;;;;;;;2.45;1.33;;;;;;;13.23;65.42;94852.25;4158847;28;20083;-51
2022/04/28 05:28:29;;;;;;;2.85;1.45;;;;;;;13.17;65.69;94852.94;4158828;28;20183;-50
2022/04/28 05:30:30;;;;;;;1.85;1.10;;;;;;;13.28;65.47;94860.44;4157437;28;20092;-50
2022/04/28 05:32:33;;;;;;;3.10;1.80;;;;;;;13.35;64.87;94855.34;4158990;28;20141;-49
2022/04/28 05:34:34;;;;;;;2.72;1.35;;;;;;;13.36;64.58;94854.34;4157831;28;20084;-51
2022/04/28 05:36:37;;;;;;;1.50;1.10;;;;;;;13.36;65.06;94863.06;4158873;28;20081;-52
2022/04/28 05:38:39;;;;;;;2.95;1.40;;;;;;;13.39;64.90;94856.63;4155980;28;20499;-50
2022/04/28 05:40:42;;;;;;;5.05;1.27;;;;;;;13.13;65.31;94860.34;4158666;28;20115;-52
2022/04/28 05:47:25;;;;;;;5.32;1.30;;;;;;;12.71;66.77;94866.69;4142344;28;20188;-54
2022/04/28 05:49:26;;;;;;;4.32;1.13;;;;;;;12.79;66.60;94877.19;4142075;28;20108;-53
2022/04/28 05:51:28;;;;;;;7.78;1.50;;;;;;;12.86;66.33;94874.72;4143800;28;20107;-52
2022/04/28 05:53:29;;;;;;;5.03;1.10;;;;;;;12.70;66.42;94889.53;4157020;28;20045;-51
2022/04/28 05:55:31;;;;;;;3.50;1.20;;;;;;;12.65;66.84;94886.63;4158592;28;20057;-50
2022/04/28 05:57:33;;;;;;;4.68;1.10;;;;;;;12.42;67.57;94883.84;4158681;28;20042;-51
2022/04/28 05:59:35;;;;;;;2.05;1.40;;;;;;;12.50;67.86;94886.47;4158525;28;20160;-51
2022/04/28 06:01:37;;;;;;;3.33;2.40;;;;;;;12.63;67.25;94893.84;4158457;28;20046;-53
2022/04/28 06:03:41;;;;;;;2.95;1.15;;;;;;;12.66;67.02;94888.25;4157894;28;20143;-52
2022/04/28 06:05:43;;;;;;;2.45;1.20;;;;;;;12.66;67.01;94890.06;4158302;28;20457;-52
2022/04/28 06:07:45;;;;;;;2.00;1.30;;;;;;;12.69;67.13;94887.91;4156904;28;20057;-51
2022/04/28 06:09:46;;;;;;;1.30;0.95;;;;;;;12.76;66.88;94895.13;4157431;28;20098;-52
2022/04/28 06:11:48;;;;;;;2.88;1.27;;;;;;;12.66;67.26;94888.25;4158492;28;20127;-51
2022/04/28 06:13:50;;;;;;;2.38;1.52;;;;;;;12.64;67.34;94892.84;4158379;28;20518;-51
2022/04/28 06:15:51;;;;;;;2.58;1.42;;;;;;;12.75;66.93;94896.94;4158614;28;20399;-52
2022/04/28 06:17:53;;;;;;;2.45;1.50;;;;;;;12.75;66.91;94893.47;4158514;28;20060;-54
2022/04/28 06:19:55;;;;;;;6.80;1.20;;;;;;;12.70;67.11;94894.81;4157142;28;20057;-52
2022/04/28 06:22:17;;;;;;;1.52;0.93;;;;;;;12.67;67.31;94889.09;4158161;28;20381;-53
2022/04/28 06:24:18;;;;;;;2.70;1.30;;;;;;;12.64;67.18;94898.09;4157149;28;20649;-55
2022/04/28 06:26:20;;;;;;;2.00;1.20;;;;;;;12.62;67.57;94897.44;4158473;28;20053;-55
2022/04/28 06:28:22;;;;;;;3.55;1.15;;;;;;;12.66;67.38;94900.56;4173581;28;20041;-52
2022/04/28 06:30:23;;;;;;;2.50;1.45;;;;;;;12.63;67.59;94909.59;4158221;28;20061;-54
2022/04/28 06:32:25;;;;;;;5.03;1.38;;;;;;;12.37;68.63;94901.06;4158298;28;20123;-52
2022/04/28 06:34:27;;;;;;;1.52;1.08;;;;;;;12.34;68.50;94901.41;4158266;28;20046;-54
2022/04/28 06:36:28;;;;;;;2.03;0.98;;;;;;;12.35;68.68;94903.06;4158377;28;20057;-52
2022/04/28 06:38:30;;;;;;;3.88;0.90;;;;;;;12.43;68.27;94909.16;4156889;28;20045;-51
2022/04/28 06:40:32;;;;;;;2.38;1.23;;;;;;;12.45;68.37;94907.19;4158327;28;20178;-49
2022/04/28 06:42:33;;;;;;;4.07;0.98;;;;;;;12.43;68.43;94903.03;4157970;28;20053;-49
2022/04/28 06:44:36;;;;;;;1.83;1.02;;;;;;;12.43;68.53;94906.50;4157753;28;20490;-51
2022/04/28 06:46:38;;;;;;;2.28;1.10;;;;;;;12.51;68.34;94910.94;4158262;28;20270;-51
2022/04/28 06:48:40;;;;;;;1.63;1.10;;;;;;;12.50;68.21;94904.84;4161260;28;20103;-57
2022/04/28 06:50:42;;;;;;;1.58;1.20;;;;;;;12.47;68.24;94907.81;4161052;28;20049;-58
2022/04/28 06:52:43;;;;;;;1.70;1.05;;;;;;;12.43;68.87;94910.94;4160785;28;20462;-50
2022/04/28 06:54:45;;;;;;;2.40;1.20;;;;;;;12.17;69.75;94906.66;4158480;28;20054;-51
2022/04/28 06:56:47;;;;;;;2.05;1.25;;;;;;;12.18;69.64;94913.56;4161109;28;20706;-54
2022/04/28 06:58:48;;;;;;;4.70;1.63;;;;;;;12.02;70.50;94921.41;4161246;28;20053;-51
2022/04/28 07:00:50;;;;;;;1.38;0.70;;;;;;;11.88;70.76;94915.84;4161184;28;20061;-51
2022/04/28 07:02:52;;;;;;;2.75;1.10;;;;;;;11.76;71.50;94921.50;4160466;28;20461;-53
2022/04/28 07:04:54;;;;;;;4.82;1.38;;;;;;;11.88;71.29;94921.06;4160911;28;20168;-55
2022/04/28 07:06:55;;;;;;;1.92;1.30;;;;;;;12.04;71.04;94920.28;4160412;28;20116;-54
2022/04/28 07:08:57;;;;;;;4.68;1.60;;;;;;;12.16;70.55;94915.53;4159686;28;20103;-52
2022/04/28 07:10:59;;;;;;;1.98;1.00;;;;;;;12.28;70.25;94921.28;4160893;28;20119;-55
2022/04/28 07:13:01;;;;;;;4.60;1.20;;;;;;;12.34;69.48;94919.81;4160125;28;20486;-48
2022/04/28 07:15:04;;;;;;;2.53;1.17;;;;;;;12.42;69.58;94917.19;4160761;28;20058;-53
2022/04/28 07:17:05;;;;;;;3.55;1.52;;;;;;;12.46;69.10;94921.13;4160734;28;20064;-53
2022/04/28 07:19:07;;;;;;;2.42;1.17;;;;;;;12.43;69.27;94926.69;4160292;28;20060;-53
2022/04/28 07:21:09;;;;;;;3.20;1.20;;;;;;;12.60;69.13;94927.50;4160094;28;20053;-53
2022/04/28 07:23:12;;;;;;;1.42;1.02;;;;;;;12.66;68.24;94930.28;4158932;28;20081;-56
2022/04/28 07:25:13;;;;;;;1.63;1.10;;;;;;;12.62;68.60;94923.72;4160910;28;20053;-53
2022/04/28 07:27:15;;;;;;;2.92;1.17;;;;;;;12.63;68.42;94924.56;4160737;28;20119;-51
2022/04/28 07:29:17;;;;;;;1.80;1.10;;;;;;;12.75;68.04;94920.59;4160545;28;20363;-52
2022/04/28 07:31:18;;;;;;;2.00;1.20;;;;;;;12.75;67.86;94925.84;4160482;28;20060;-54
2022/04/28 07:33:20;;;;;;;1.60;1.08;;;;;;;12.77;68.03;94925.69;4160222;28;20052;-53
2022/04/28 07:35:25;;;;;;;2.78;1.33;;;;;;;12.60;68.17;94930.94;4159313;28;20336;-54
2022/04/28 07:37:27;;;;;;;1.88;1.17;;;;;;;12.57;68.33;94926.03;4160366;28;20429;-54
2022/04/28 07:39:28;;;;;;;4.57;1.45;;;;;;;12.52;68.39;94928.34;4157926;28;20054;-53
2022/04/28 07:41:30;;;;;;;1.95;1.10;;;;;;;12.50;68.42;94933.75;4160396;28;20053;-55
2022/04/28 07:43:32;;;;;;;2.40;1.17;;;;;;;12.55;68.51;94927.19;4160115;28;20568;-52
2022/04/28 07:45:34;;;;;;;2.83;1.77;;;;;;;12.67;68.23;94931.94;4159918;28;20057;-52
2022/04/28 07:47:36;;;;;;;3.03;1.48;;;;;;;12.67;68.26;94931.94;4156013;28;20042;-52
2022/04/28 07:49:37;;;;;;;2.65;1.40;;;;;;;12.72;67.73;94930.63;4159675;28;20057;-54
2022/04/28 07:51:40;;;;;;;6.70;1.67;;;;;;;12.80;67.74;94928.81;4160492;28;20053;-54
2022/04/28 07:53:41;;;;;;;3.78;1.35;;;;;;;12.75;67.33;94930.28;4158993;28;20049;-54
2022/04/28 07:55:43;;;;;;;4.47;1.70;;;;;;;12.68;68.05;94928.31;4160426;28;20054;-51
2022/04/28 07:57:45;;;;;;;3.42;2.03;;;;;;;12.47;68.42;94933.25;4159379;28;20049;-51
2022/04/28 07:59:47;;;;;;;4.18;2.03;;;;;;;12.41;68.55;94937.38;4160162;28;20097;-53
2022/04/28 08:01:49;;;;;;;6.57;1.45;;;;;;;12.56;68.30;94940.19;4159931;28;20135;-53
2022/04/28 08:03:51;;;;;;;3.08;1.40;;;;;;;12.45;68.97;94943.13;4159501;28;20061;-54
2022/04/28 08:05:53;;;;;;;3.17;1.30;;;;;;;12.50;68.50;94944.28;4160009;28;20141;-52
2022/04/28 08:07:55;;;;;;;2.83;1.10;;;;;;;12.57;68.06;94947.06;4158862;28;20061;-56
2022/04/28 08:09:57;;;;;;;2.75;1.80;;;;;;;12.75;67.55;94949.50;4160302;28;20136;-49
2022/04/28 08:12:00;;;;;;;2.65;1.20;;;;;;;12.95;67.03;94939.47;4143831;28;20066;-50
2022/04/28 08:14:02;;;;;;;2.30;1.17;;;;;;;13.02;66.49;94944.88;4143217;28;20442;-51
2022/04/28 08:16:04;;;;;;;2.60;1.52;;;;;;;13.07;66.43;94938.09;4142582;28;20429;-51
2022/04/28 08:18:06;;;;;;;8.23;2.55;;;;;;;13.06;66.66;94946.19;4143149;28;20065;-51
2022/04/28 08:20:08;;;;;;;4.03;1.80;;;;;;;13.22;66.31;94940.84;4143790;28;20066;-54
2022/04/28 08:22:10;;;;;;;2.50;1.70;;;;;;;13.29;65.49;94944.50;4143299;28;20387;-50
2022/04/28 08:24:12;;;;;;;2.15;1.60;;;;;;;13.27;66.12;94942.97;4141886;28;20124;-53
2022/04/28 08:26:14;;;;;;;2.55;1.30;;;;;;;13.29;66.06;94949.75;4143496;28;20050;-52
2022/04/28 08:28:15;;;;;;;4.20;1.40;;;;;;;13.39;65.92;94946.91;4142024;28;20049;-56
2022/04/28 08:30:17;;;;;;;2.55;1.50;;;;;;;13.41;65.75;94959.91;4143512;28;20058;-51
2022/04/28 08:32:19;;;;;;;2.67;1.50;;;;;;;13.42;65.43;94956.28;4143357;28;20058;-53
2022/04/28 08:34:22;;;;;;;2.97;1.70;;;;;;;13.38;65.89;94955.81;4142999;28;20123;-53
2022/04/28 08:36:25;;;;;;;5.05;1.73;;;;;;;13.36;65.88;94955.16;4143273;28;20050;-49
2022/04/28 08:38:27;;;;;;;3.73;1.70;;;;;;;13.42;65.80;94956.28;4142001;28;20052;-51
2022/04/28 08:40:29;;;;;;;3.97;1.52;;;;;;;13.45;65.42;94953.31;4148990;28;20467;-52
2022/04/28 08:42:31;;;;;;;4.25;1.85;;;;;;;13.48;65.43;94959.03;4143987;28;20565;-53
2022/04/28 08:44:33;;;;;;;3.17;1.40;;;;;;;13.40;66.11;94951.22;4143301;28;20054;-52
2022/04/28 08:46:51;;;;;;;3.35;1.45;;;;;;;13.50;65.96;94959.69;4142329;28;20098;-50
2022/04/28 08:48:54;;;;;;;6.53;1.45;;;;;;;13.48;65.59;94955.59;4132918;28;20173;-49
2022/04/28 08:50:58;;;;;;;3.65;1.80;;;;;;;13.44;65.84;94960.41;4126804;28;20112;-52
2022/04/28 08:53:01;;;;;;;4.30;1.50;;;;;;;13.51;65.74;94956.09;4139997;28;20064;-55
2022/04/28 08:55:03;;;;;;;3.38;1.23;;;;;;;13.52;65.46;94952.44;4142988;28;20053;-52
2022/04/28 08:57:05;;;;;;;5.88;1.88;;;;;;;13.54;65.61;94960.19;4142864;28;20053;-55
2022/04/28 08:59:07;;;;;;;2.92;1.58;;;;;;;13.56;65.41;94952.13;4142968;28;20507;-58
2022/04/28 09:01:09;;;;;;;4.22;1.73;;;;;;;13.62;65.32;94962.78;4142812;28;20131;-50
2022/04/28 09:03:11;;;;;;;4.78;1.50;;;;;;;13.60;65.71;94959.50;4142281;28;20113;-52
2022/04/28 09:05:17;;;;;;;2.15;1.58;;;;;;;13.59;65.28;94954.41;4142949;28;20465;-53
2022/04/28 09:07:32;;;;;;;3.47;1.50;;;;;;;13.69;65.24;94952.41;4142909;28;20146;-51
2022/04/28 09:09:34;;;;;;;4.82;1.70;;;;;;;13.71;65.00;94958.31;4140027;28;20465;-54
2022/04/28 09:11:37;;;;;;;3.05;1.20;;;;;;;13.75;65.05;94954.34;4142807;28;20068;-51
2022/04/28 09:15:59;;;;;;;3.40;1.50;;;;;;;13.81;64.71;94958.09;4142596;28;20053;-53
2022/04/28 09:18:01;;;;;;;2.85;1.50;;;;;;;13.77;64.43;94959.44;4142357;28;20632;-52
2022/04/28 09:20:05;;;;;;;5.80;1.65;;;;;;;13.78;64.30;94959.25;4142337;28;20116;-54
2022/04/28 09:22:09;;;;;;;5.55;1.50;;;;;;;13.87;64.38;94962.66;4129255;28;20510;-54
2022/04/28 09:24:11;;;;;;;3.03;1.67;;;;;;;13.95;64.34;94967.88;4124782;28;20060;-52
2022/04/28 09:26:12;;;;;;;5.05;1.60;;;;;;;14.08;63.65;94962.06;4126360;28;20054;-52
2022/04/28 09:28:14;;;;;;;2.65;1.60;;;;;;;14.13;63.54;94960.56;4124974;28;20054;-53
2022/04/28 09:30:16;;;;;;;5.28;1.95;;;;;;;14.12;63.35;94964.16;4126401;28;20125;-52
2022/04/28 09:32:21;;;;;;;3.03;1.80;;;;;;;14.06;63.84;94966.69;4124404;28;20109;-53
2022/04/28 09:34:47;;;;;;;;;;;;;;;14.09;63.44;94963.72;4125338;28;20099;-52
2022/04/28 09:36:49;;;;;;;2.63;1.45;;;;;;;14.14;62.92;94962.19;4126065;28;20279;-53
2022/04/28 09:38:54;;;;;;;4.50;1.90;;;;;;;14.18;63.05;94967.94;4124912;28;20058;-54
2022/04/28 09:43:15;;;;;;;3.20;2.38;;;;;;;13.38;65.58;94973.41;4126569;28;20058;-52
2022/04/28 09:45:20;;;;;;;5.25;2.40;;;;;;;13.54;65.07;94960.19;4125817;28;20157;-53
2022/04/28 09:47:24;;;;;;;4.57;2.35;;;;;;;13.61;64.20;94970.84;4127607;28;20117;-53
2022/04/28 09:49:28;;;;;;;6.78;2.97;;;;;;;13.39;64.87;94967.97;4131834;28;20109;-52
2022/04/28 09:51:30;;;;;;;5.25;3.30;;;;;;;13.40;65.60;94969.63;4142258;28;20046;-52
2022/04/28 09:53:33;;;;;;;6.93;2.78;;;;;;;13.39;65.64;94961.91;4140870;28;20332;-51
2022/04/28 09:55:35;;;;;;;5.63;2.58;;;;;;;13.51;64.81;94955.28;4142504;28;20058;-52
2022/04/28 09:57:37;;;;;;;4.03;2.50;;;;;;;13.76;64.46;94953.34;4142428;28;20049;-50
2022/04/28 09:59:39;;;;;;;5.00;2.40;;;;;;;13.95;63.62;94956.53;4141880;28;20054;-53
2022/04/28 10:01:42;;;;;;;5.40;2.58;;;;;;;13.95;62.86;94952.09;4142208;28;20050;-54